Terminal Aerodrome Forecast
Issued by NWS Blacksburg, VA

Home | Current Version | Previous Version | Text Only | Print | Product List | Glossary On
Versions: 1 2 3 4 5 6 7 8 9 10 11 12 13 14 15 16 17 18 19 20 21 22 23 24
000
FTUS41 KRNK 210534
TAFLYH
TAF
KLYH 210534Z 2106/2206 19003KT P6SM SCT020 BKN035
      TEMPO 2108/2112 4SM BR OVC020
     FM211600 10004KT P6SM SCT060=

USA.gov is the U.S. government's official web portal to all federal, state and local government web resources and services.